createdAt,value
2018-09-20T00:01:12.158Z,12.40
2018-09-20T00:03:40.750Z,12.40
2018-09-20T00:06:09.492Z,12.40
2018-09-20T00:08:38.161Z,12.40
2018-09-20T00:11:07.200Z,12.30
2018-09-20T00:13:35.844Z,12.30
2018-09-20T00:16:04.568Z,12.30
2018-09-20T00:18:33.781Z,12.40
2018-09-20T00:21:02.351Z,12.40
2018-09-20T00:23:31.637Z,12.40
2018-09-20T00:26:00.299Z,12.30
2018-09-20T00:28:29.248Z,12.30
2018-09-20T00:30:57.893Z,12.30
2018-09-20T00:33:26.501Z,12.20
2018-09-20T00:35:55.229Z,12.20
2018-09-20T00:38:23.952Z,12.20
2018-09-20T00:40:52.581Z,12.20
2018-09-20T00:43:21.142Z,12.20
2018-09-20T00:45:49.712Z,12.10
2018-09-20T00:48:18.364Z,12.00
2018-09-20T00:50:47.044Z,12.00
2018-09-20T00:53:15.833Z,12.00
2018-09-20T00:55:44.506Z,12.10
2018-09-20T00:58:13.156Z,12.00
2018-09-20T01:00:41.669Z,12.00
2018-09-20T01:03:10.427Z,11.90
2018-09-20T01:05:39.001Z,11.90
2018-09-20T01:08:07.558Z,11.90
2018-09-20T01:10:36.168Z,11.80
2018-09-20T01:13:04.749Z,11.80
2018-09-20T01:15:33.308Z,11.80
2018-09-20T01:18:01.864Z,11.80
2018-09-20T01:20:30.400Z,11.80
2018-09-20T01:22:58.964Z,11.70
2018-09-20T01:25:27.594Z,11.70
2018-09-20T01:27:56.116Z,11.70
2018-09-20T01:30:25.216Z,11.70
2018-09-20T01:32:54.378Z,11.70
2018-09-20T01:35:23.122Z,11.60
2018-09-20T01:37:51.710Z,11.60
2018-09-20T01:40:20.232Z,11.60
2018-09-20T01:42:49.213Z,11.60
2018-09-20T01:45:17.736Z,11.60
2018-09-20T01:47:46.308Z,11.60
2018-09-20T01:50:15.320Z,11.60
2018-09-20T01:52:44.134Z,11.50
2018-09-20T01:55:12.692Z,11.40
2018-09-20T01:57:41.429Z,11.50
2018-09-20T02:00:10.142Z,11.40
2018-09-20T02:02:39.695Z,11.50
2018-09-20T02:05:08.649Z,11.50
2018-09-20T02:07:37.215Z,11.50
2018-09-20T02:10:06.065Z,11.40
2018-09-20T02:12:35.022Z,11.40
2018-09-20T02:15:03.552Z,11.40
2018-09-20T02:17:32.084Z,11.40
2018-09-20T02:20:00.600Z,11.30
2018-09-20T02:22:29.277Z,11.30
2018-09-20T02:24:58.078Z,11.20
2018-09-20T02:27:27.640Z,11.20
2018-09-20T02:29:56.459Z,11.20
2018-09-20T02:32:25.184Z,11.20
2018-09-20T02:34:53.751Z,11.10
2018-09-20T02:37:22.373Z,11.10
2018-09-20T02:39:50.963Z,11.10
2018-09-20T02:42:19.753Z,11.10
2018-09-20T02:44:48.368Z,11.10
2018-09-20T02:47:16.904Z,11.10
2018-09-20T02:49:45.765Z,11.10
2018-09-20T02:52:14.428Z,11.10
2018-09-20T02:54:43.872Z,11.10
2018-09-20T02:57:12.500Z,11.00
2018-09-20T02:59:41.459Z,11.00
2018-09-20T03:02:10.804Z,10.90
2018-09-20T03:04:39.494Z,10.90
2018-09-20T03:07:08.169Z,10.90
2018-09-20T03:09:36.765Z,10.90
2018-09-20T03:12:05.535Z,10.90
2018-09-20T03:14:34.217Z,10.90
2018-09-20T03:17:03.132Z,10.90
2018-09-20T03:19:31.860Z,10.90
2018-09-20T03:22:00.413Z,10.80
2018-09-20T03:24:28.990Z,10.80
2018-09-20T03:26:57.845Z,10.90
2018-09-20T03:29:27.205Z,10.80
2018-09-20T03:31:56.358Z,10.80
2018-09-20T03:34:24.948Z,10.80
2018-09-20T03:36:54.105Z,10.70
2018-09-20T03:39:23.163Z,10.70
2018-09-20T03:41:51.687Z,10.70
2018-09-20T03:44:20.276Z,10.60
2018-09-20T03:46:48.947Z,10.60
2018-09-20T03:49:17.674Z,10.60
2018-09-20T03:51:46.385Z,10.60
2018-09-20T03:54:14.914Z,10.60
2018-09-20T03:56:43.512Z,10.60
2018-09-20T03:59:12.456Z,10.60
2018-09-20T04:01:41.431Z,10.60
2018-09-20T04:04:09.981Z,10.60
2018-09-20T04:06:39.131Z,10.60
2018-09-20T04:09:10.570Z,10.60
2018-09-20T04:11:40.330Z,10.60
2018-09-20T04:14:09.361Z,10.60
2018-09-20T04:16:37.844Z,10.60
2018-09-20T04:19:06.579Z,10.60
2018-09-20T04:21:36.367Z,10.60
2018-09-20T04:24:06.424Z,10.50
2018-09-20T04:26:35.436Z,10.50
2018-09-20T04:29:04.043Z,10.50
2018-09-20T04:31:33.615Z,10.50
2018-09-20T04:34:02.553Z,10.50
2018-09-20T04:36:31.407Z,10.50
2018-09-20T04:39:00.671Z,10.50
2018-09-20T04:41:30.197Z,10.40
2018-09-20T04:43:59.051Z,10.40
2018-09-20T04:46:28.433Z,10.40
2018-09-20T04:48:57.140Z,10.30
2018-09-20T04:51:25.755Z,10.30
2018-09-20T04:53:54.285Z,10.30
2018-09-20T04:56:22.925Z,10.30
2018-09-20T04:58:51.500Z,10.30
2018-09-20T05:01:20.820Z,10.30
2018-09-20T05:03:49.468Z,10.30
2018-09-20T05:06:18.020Z,10.30
2018-09-20T05:08:46.695Z,10.30
2018-09-20T05:11:15.567Z,10.20
2018-09-20T05:13:44.141Z,10.30
2018-09-20T05:16:14.121Z,10.30
2018-09-20T05:18:42.750Z,10.30
2018-09-20T05:21:11.877Z,10.30
2018-09-20T05:23:40.619Z,10.30
2018-09-20T05:26:10.151Z,10.40
2018-09-20T05:28:38.903Z,10.40
2018-09-20T05:31:07.601Z,10.40
2018-09-20T05:33:36.275Z,10.40
2018-09-20T05:36:04.890Z,10.40
2018-09-20T05:38:33.393Z,10.50
2018-09-20T05:41:02.524Z,10.50
2018-09-20T05:43:31.742Z,10.60
2018-09-20T05:46:00.294Z,10.60
2018-09-20T05:48:30.117Z,10.70
2018-09-20T05:50:59.580Z,10.90
2018-09-20T05:53:28.817Z,11.00
2018-09-20T05:55:57.349Z,11.10
2018-09-20T05:58:26.093Z,11.20
2018-09-20T06:00:55.212Z,11.30
2018-09-20T06:03:23.766Z,11.40
2018-09-20T06:05:52.571Z,11.50
2018-09-20T06:08:21.928Z,11.60
2018-09-20T06:10:51.017Z,11.70
2018-09-20T17:38:40.148Z,20.30
2018-09-20T17:41:13.080Z,20.00
2018-09-20T17:43:51.352Z,19.90
2018-09-20T17:46:20.160Z,19.70
2018-09-20T17:48:49.041Z,19.60
2018-09-20T17:51:18.599Z,19.40
2018-09-20T17:53:48.201Z,19.20
2018-09-20T17:56:18.323Z,19.00
2018-09-20T17:58:47.539Z,18.80
2018-09-20T18:01:16.573Z,18.70
2018-09-20T18:03:45.701Z,18.60
2018-09-20T18:06:14.646Z,18.50
2018-09-20T18:08:43.545Z,18.40
2018-09-20T18:11:12.503Z,18.20
2018-09-20T18:13:41.065Z,18.10
2018-09-20T18:16:10.037Z,18.10
2018-09-20T18:18:38.740Z,18.00
2018-09-20T18:21:08.509Z,17.90
2018-09-20T18:23:37.353Z,17.70
2018-09-20T18:26:06.172Z,17.60
2018-09-20T18:28:35.389Z,17.50
2018-09-20T18:31:04.256Z,17.40
2018-09-20T18:33:33.791Z,17.30
2018-09-20T18:36:02.659Z,17.30
2018-09-20T18:38:31.687Z,17.20
2018-09-20T18:41:00.640Z,17.10
2018-09-20T18:43:30.038Z,17.10
2018-09-20T18:45:58.773Z,17.00
2018-09-20T18:48:27.481Z,16.90
2018-09-20T18:50:56.391Z,16.80
2018-09-20T18:53:25.225Z,16.90
2018-09-20T18:55:54.494Z,16.80
2018-09-20T18:58:23.810Z,16.70
2018-09-20T19:00:53.922Z,16.60
2018-09-20T19:03:23.548Z,16.50
2018-09-20T19:05:52.638Z,16.40
2018-09-20T19:08:21.658Z,16.30
2018-09-20T19:10:50.783Z,16.30
2018-09-20T19:13:19.616Z,16.30
2018-09-20T19:15:48.418Z,16.20
2018-09-20T19:18:17.523Z,16.10
2018-09-20T19:20:46.361Z,16.10
2018-09-20T19:23:15.184Z,16.00
2018-09-20T19:25:44.942Z,16.00
2018-09-20T19:28:13.660Z,15.90
2018-09-20T19:30:42.575Z,15.90
2018-09-20T19:33:12.060Z,15.80
2018-09-20T19:35:40.667Z,15.70
2018-09-20T19:38:10.204Z,15.60
2018-09-20T19:40:39.524Z,15.60
2018-09-20T19:43:08.299Z,15.50
2018-09-20T19:45:38.053Z,15.60
2018-09-20T19:48:06.658Z,15.40
2018-09-20T19:50:35.485Z,15.30
2018-09-20T19:53:04.814Z,15.20
2018-09-20T19:55:33.735Z,15.20
2018-09-20T19:58:03.496Z,15.10
2018-09-20T20:00:32.399Z,15.10
2018-09-20T20:03:01.265Z,15.10
2018-09-20T20:05:30.104Z,15.10
2018-09-20T20:07:59.103Z,15.00
2018-09-20T20:10:27.702Z,14.90
2018-09-20T20:12:56.578Z,14.90
2018-09-20T20:15:25.134Z,14.80
2018-09-20T20:17:54.207Z,14.70
2018-09-20T20:20:23.008Z,14.60
2018-09-20T20:22:51.798Z,14.60
2018-09-20T20:25:20.744Z,14.50
2018-09-20T20:27:49.898Z,14.50
2018-09-20T20:30:18.763Z,14.40
2018-09-20T20:32:47.798Z,14.40
2018-09-20T20:35:16.863Z,14.40
2018-09-20T20:37:45.809Z,14.30
2018-09-20T20:40:14.420Z,14.30
2018-09-20T20:42:44.424Z,14.20
2018-09-20T20:45:13.059Z,14.20
2018-09-20T20:47:41.827Z,14.20
2018-09-20T20:50:10.712Z,14.20
2018-09-20T20:52:39.303Z,14.00
2018-09-20T20:55:08.039Z,14.00
2018-09-20T20:57:36.613Z,13.90
2018-09-20T21:00:07.224Z,13.90
2018-09-20T21:02:35.998Z,13.80
2018-09-20T21:05:04.916Z,13.80
2018-09-20T21:07:33.552Z,13.80
2018-09-20T21:10:03.201Z,13.80
2018-09-20T21:12:31.942Z,13.70
2018-09-20T21:15:00.859Z,13.70
2018-09-20T21:17:29.521Z,13.60
2018-09-20T21:19:59.995Z,13.60
2018-09-20T21:22:28.845Z,13.60
2018-09-20T21:24:57.760Z,13.50
2018-09-20T21:27:26.388Z,13.40
2018-09-20T21:29:54.886Z,13.40
2018-09-20T21:32:23.787Z,13.40
2018-09-20T21:34:52.683Z,13.30
2018-09-20T21:37:21.393Z,13.30
2018-09-20T21:39:50.572Z,13.30
2018-09-20T21:42:19.456Z,13.20
2018-09-20T21:44:48.144Z,13.10
2018-09-20T21:47:17.052Z,13.00
2018-09-20T21:49:46.458Z,13.10
2018-09-20T21:52:15.663Z,13.00
2018-09-20T21:54:45.125Z,13.10
2018-09-20T21:57:13.819Z,13.10
2018-09-20T21:59:42.317Z,13.00
2018-09-20T22:02:10.979Z,13.00
2018-09-20T22:04:39.786Z,12.90
2018-09-20T22:07:08.669Z,12.90
2018-09-20T22:09:37.294Z,12.80
2018-09-20T22:12:06.579Z,12.90
2018-09-20T22:14:35.803Z,12.80
2018-09-20T22:17:04.422Z,12.80
2018-09-20T22:19:33.089Z,12.70
2018-09-20T22:22:01.775Z,12.70
2018-09-20T22:24:30.290Z,12.60
2018-09-20T22:26:58.806Z,12.60
2018-09-20T22:29:27.503Z,12.50
2018-09-20T22:31:56.023Z,12.50
2018-09-20T22:34:24.976Z,12.50
2018-09-20T22:36:53.838Z,12.50
2018-09-20T22:39:22.425Z,12.40
2018-09-20T22:41:51.219Z,12.30
2018-09-20T22:44:19.974Z,12.30
2018-09-20T22:46:48.714Z,12.30
2018-09-20T22:49:18.001Z,12.30
2018-09-20T22:51:46.703Z,12.30
2018-09-20T22:54:15.512Z,12.20
2018-09-20T22:56:44.001Z,12.20
2018-09-20T22:59:13.121Z,12.20
2018-09-20T23:01:42.164Z,12.10
2018-09-20T23:04:11.193Z,12.10
2018-09-20T23:06:39.877Z,12.10
2018-09-20T23:09:09.968Z,12.00
2018-09-20T23:11:39.047Z,12.00
2018-09-20T23:14:08.262Z,12.00
2018-09-20T23:16:36.848Z,12.00
2018-09-20T23:19:05.709Z,12.00
2018-09-20T23:21:34.476Z,11.90
2018-09-20T23:24:03.109Z,11.90
2018-09-20T23:26:31.712Z,11.90
2018-09-20T23:29:00.359Z,11.80
2018-09-20T23:31:28.896Z,11.80
2018-09-20T23:33:57.488Z,11.80
2018-09-20T23:36:26.336Z,11.90
2018-09-20T23:38:55.606Z,11.80
2018-09-20T23:41:24.426Z,11.70
2018-09-20T23:43:52.978Z,11.70
2018-09-20T23:46:21.672Z,11.70
2018-09-20T23:48:50.190Z,11.70
2018-09-20T23:51:18.968Z,11.70
2018-09-20T23:53:47.722Z,11.60
2018-09-20T23:56:16.241Z,11.60
2018-09-20T23:58:44.845Z,11.60
